To NAV CANADA Home Page Login to a new session Search on AWWS site Feedback and Comments Disclaimer Vers la page française équivalente Tips FAQ What's new on the site To the Forecasts and Observations / NOTAM section To "File a Flight Plan" website Publications and other links Update of the User's profile FIC Telephone Numbers My Weather Data Folder Route Weather Data Regional Weather Data Local Weather Data To the Forecasts and Observations / NOTAM section
Request Generated 04/23/2014 at 14:20:55 UTC . Weather information available at that time is displayed.

METAR/TAF

BRANDON/BRANDON MUNICIPALITY/MB    

METAR CYBR 231400Z 08014G19KT 15SM SCT180 OVC210 05/01 A2983 RMK
AC3CI5 SLP115=
METAR CYBR 231300Z 07014KT 15SM OVC210 03/M00 A2984 RMK CI8 SLP117=
METAR CYBR 231200Z 08011KT 15SM BKN210 03/M00 A2985 RMK CI7 SLP121=

TAF CYBR 231138Z 2312/2324 08012KT P6SM SCT200
FM231700 12020G30KT P6SM -RA OVC020
FM232100 12020G30KT P6SM -RA OVC015 TEMPO 2321/2324 4SM -RA BR
OVC006
RMK NXT FCST BY 231800Z=
Your time UTC time
Weather data provided by Environment Canada and NAV CANADA